sensor_id;sensor_type;location;lat;lon;timestamp;P1;durP1;ratioP1;P2;durP2;ratioP2
7047;SDS011;3565;53.254;10.352;2023-10-08T00:03:25;7.37;;;2.40;;
7047;SDS011;3565;53.254;10.352;2023-10-08T00:05:55;6.30;;;2.40;;
7047;SDS011;3565;53.254;10.352;2023-10-08T00:08:24;7.53;;;3.27;;
7047;SDS011;3565;53.254;10.352;2023-10-08T00:13:30;6.97;;;2.47;;
7047;SDS011;3565;53.254;10.352;2023-10-08T00:16:03;6.60;;;2.60;;
7047;SDS011;3565;53.254;10.352;2023-10-08T00:18:34;7.57;;;2.80;;
7047;SDS011;3565;53.254;10.352;2023-10-08T00:21:06;7.17;;;2.70;;
7047;SDS011;3565;53.254;10.352;2023-10-08T00:26:23;9.47;;;2.50;;
7047;SDS011;3565;53.254;10.352;2023-10-08T00:28:56;7.13;;;2.80;;
7047;SDS011;3565;53.254;10.352;2023-10-08T00:34:03;7.53;;;2.43;;
7047;SDS011;3565;53.254;10.352;2023-10-08T00:36:34;14.03;;;2.67;;
7047;SDS011;3565;53.254;10.352;2023-10-08T00:39:03;6.80;;;2.90;;
7047;SDS011;3565;53.254;10.352;2023-10-08T00:41:36;5.37;;;2.50;;
7047;SDS011;3565;53.254;10.352;2023-10-08T00:46:44;7.40;;;2.73;;
7047;SDS011;3565;53.254;10.352;2023-10-08T00:49:15;6.73;;;3.17;;
7047;SDS011;3565;53.254;10.352;2023-10-08T00:52:04;8.03;;;3.47;;
7047;SDS011;3565;53.254;10.352;2023-10-08T00:57:15;11.67;;;3.10;;
7047;SDS011;3565;53.254;10.352;2023-10-08T01:02:26;9.17;;;3.03;;
7047;SDS011;3565;53.254;10.352;2023-10-08T01:04:58;8.10;;;2.90;;
7047;SDS011;3565;53.254;10.352;2023-10-08T01:07:27;8.00;;;3.43;;
7047;SDS011;3565;53.254;10.352;2023-10-08T01:12:34;14.87;;;3.33;;
7047;SDS011;3565;53.254;10.352;2023-10-08T01:15:07;9.63;;;2.83;;
7047;SDS011;3565;53.254;10.352;2023-10-08T01:17:42;7.90;;;3.07;;
7047;SDS011;3565;53.254;10.352;2023-10-08T01:22:50;7.57;;;2.70;;
7047;SDS011;3565;53.254;10.352;2023-10-08T01:25:20;6.10;;;2.70;;
7047;SDS011;3565;53.254;10.352;2023-10-08T01:27:59;8.13;;;3.47;;
7047;SDS011;3565;53.254;10.352;2023-10-08T01:30:29;7.00;;;2.90;;
7047;SDS011;3565;53.254;10.352;2023-10-08T01:33:08;8.40;;;3.03;;
7047;SDS011;3565;53.254;10.352;2023-10-08T01:35:40;10.63;;;3.17;;
7047;SDS011;3565;53.254;10.352;2023-10-08T01:38:09;9.20;;;3.30;;
7047;SDS011;3565;53.254;10.352;2023-10-08T01:43:18;11.43;;;3.47;;
7047;SDS011;3565;53.254;10.352;2023-10-08T01:45:48;12.27;;;3.83;;
7047;SDS011;3565;53.254;10.352;2023-10-08T01:48:18;11.43;;;3.10;;
7047;SDS011;3565;53.254;10.352;2023-10-08T01:53:28;9.07;;;3.10;;
7047;SDS011;3565;53.254;10.352;2023-10-08T01:55:58;9.07;;;3.47;;
7047;SDS011;3565;53.254;10.352;2023-10-08T01:58:30;15.03;;;3.27;;
7047;SDS011;3565;53.254;10.352;2023-10-08T02:03:37;9.47;;;3.17;;
7047;SDS011;3565;53.254;10.352;2023-10-08T02:06:07;9.57;;;2.73;;
7047;SDS011;3565;53.254;10.352;2023-10-08T02:11:16;7.90;;;3.07;;
7047;SDS011;3565;53.254;10.352;2023-10-08T02:16:23;8.47;;;2.77;;
7047;SDS011;3565;53.254;10.352;2023-10-08T02:18:54;7.63;;;2.57;;
7047;SDS011;3565;53.254;10.352;2023-10-08T02:21:23;6.47;;;2.80;;
7047;SDS011;3565;53.254;10.352;2023-10-08T02:26:29;6.10;;;2.60;;
7047;SDS011;3565;53.254;10.352;2023-10-08T02:29:00;6.90;;;2.60;;
7047;SDS011;3565;53.254;10.352;2023-10-08T02:31:31;6.30;;;2.67;;
7047;SDS011;3565;53.254;10.352;2023-10-08T02:36:38;7.83;;;2.93;;
7047;SDS011;3565;53.254;10.352;2023-10-08T02:39:08;12.33;;;2.73;;
7047;SDS011;3565;53.254;10.352;2023-10-08T02:44:25;8.80;;;2.80;;
7047;SDS011;3565;53.254;10.352;2023-10-08T02:46:54;6.03;;;2.73;;
7047;SDS011;3565;53.254;10.352;2023-10-08T02:49:23;8.00;;;2.83;;
7047;SDS011;3565;53.254;10.352;2023-10-08T02:54:31;8.40;;;3.00;;
7047;SDS011;3565;53.254;10.352;2023-10-08T02:57:02;6.20;;;2.40;;
7047;SDS011;3565;53.254;10.352;2023-10-08T03:02:10;7.87;;;2.87;;
7047;SDS011;3565;53.254;10.352;2023-10-08T03:04:42;9.13;;;2.67;;
7047;SDS011;3565;53.254;10.352;2023-10-08T03:07:20;6.13;;;2.70;;
7047;SDS011;3565;53.254;10.352;2023-10-08T03:09:52;13.23;;;3.53;;
7047;SDS011;3565;53.254;10.352;2023-10-08T03:15:01;9.90;;;3.13;;
7047;SDS011;3565;53.254;10.352;2023-10-08T03:17:40;11.37;;;3.50;;
7047;SDS011;3565;53.254;10.352;2023-10-08T03:20:17;5.13;;;2.60;;
7047;SDS011;3565;53.254;10.352;2023-10-08T03:25:35;5.47;;;2.60;;
7047;SDS011;3565;53.254;10.352;2023-10-08T03:28:06;11.60;;;2.70;;
7047;SDS011;3565;53.254;10.352;2023-10-08T03:30:37;8.50;;;2.50;;
7047;SDS011;3565;53.254;10.352;2023-10-08T03:33:14;7.63;;;2.73;;
7047;SDS011;3565;53.254;10.352;2023-10-08T03:38:27;9.27;;;2.87;;
7047;SDS011;3565;53.254;10.352;2023-10-08T03:43:36;6.80;;;2.70;;
7047;SDS011;3565;53.254;10.352;2023-10-08T03:46:11;8.07;;;2.47;;
7047;SDS011;3565;53.254;10.352;2023-10-08T03:48:42;8.17;;;2.53;;
7047;SDS011;3565;53.254;10.352;2023-10-08T03:51:13;5.33;;;2.57;;
7047;SDS011;3565;53.254;10.352;2023-10-08T03:56:21;6.03;;;2.80;;
7047;SDS011;3565;53.254;10.352;2023-10-08T03:58:51;9.77;;;2.90;;
7047;SDS011;3565;53.254;10.352;2023-10-08T04:01:21;7.47;;;2.70;;
7047;SDS011;3565;53.254;10.352;2023-10-08T04:06:28;6.20;;;2.70;;
7047;SDS011;3565;53.254;10.352;2023-10-08T04:09:05;4.97;;;2.10;;
7047;SDS011;3565;53.254;10.352;2023-10-08T04:14:23;7.80;;;2.40;;
7047;SDS011;3565;53.254;10.352;2023-10-08T04:16:54;6.73;;;2.63;;
7047;SDS011;3565;53.254;10.352;2023-10-08T04:19:25;6.37;;;2.70;;
7047;SDS011;3565;53.254;10.352;2023-10-08T04:24:31;6.83;;;2.73;;
7047;SDS011;3565;53.254;10.352;2023-10-08T04:27:01;7.50;;;2.50;;
7047;SDS011;3565;53.254;10.352;2023-10-08T04:32:10;7.07;;;3.30;;
7047;SDS011;3565;53.254;10.352;2023-10-08T04:34:41;6.57;;;2.90;;
7047;SDS011;3565;53.254;10.352;2023-10-08T04:37:11;5.20;;;2.27;;
7047;SDS011;3565;53.254;10.352;2023-10-08T04:42:20;4.83;;;2.40;;
7047;SDS011;3565;53.254;10.352;2023-10-08T04:44:52;7.40;;;2.50;;
7047;SDS011;3565;53.254;10.352;2023-10-08T04:47:22;8.00;;;2.77;;
7047;SDS011;3565;53.254;10.352;2023-10-08T04:50:02;6.93;;;2.60;;
7047;SDS011;3565;53.254;10.352;2023-10-08T04:52:32;5.77;;;2.50;;
7047;SDS011;3565;53.254;10.352;2023-10-08T04:55:03;8.57;;;2.43;;
7047;SDS011;3565;53.254;10.352;2023-10-08T05:00:13;5.20;;;2.40;;
7047;SDS011;3565;53.254;10.352;2023-10-08T05:05:22;4.47;;;2.13;;
7047;SDS011;3565;53.254;10.352;2023-10-08T05:07:52;6.70;;;2.43;;
7047;SDS011;3565;53.254;10.352;2023-10-08T05:10:27;6.17;;;2.33;;
7047;SDS011;3565;53.254;10.352;2023-10-08T05:13:13;6.63;;;2.30;;
7047;SDS011;3565;53.254;10.352;2023-10-08T05:18:19;6.00;;;2.50;;
7047;SDS011;3565;53.254;10.352;2023-10-08T05:23:29;4.50;;;2.50;;
7047;SDS011;3565;53.254;10.352;2023-10-08T05:26:22;8.43;;;2.73;;
7047;SDS011;3565;53.254;10.352;2023-10-08T05:28:59;6.03;;;2.53;;
7047;SDS011;3565;53.254;10.352;2023-10-08T05:34:08;8.33;;;2.50;;
7047;SDS011;3565;53.254;10.352;2023-10-08T05:36:43;4.57;;;2.07;;
7047;SDS011;3565;53.254;10.352;2023-10-08T05:39:29;6.93;;;2.50;;
7047;SDS011;3565;53.254;10.352;2023-10-08T05:44:37;6.47;;;2.30;;
7047;SDS011;3565;53.254;10.352;2023-10-08T05:47:09;6.70;;;2.23;;
7047;SDS011;3565;53.254;10.352;2023-10-08T05:50:07;5.90;;;2.47;;
7047;SDS011;3565;53.254;10.352;2023-10-08T05:55:34;6.07;;;2.20;;
7047;SDS011;3565;53.254;10.352;2023-10-08T05:58:05;4.30;;;2.50;;
7047;SDS011;3565;53.254;10.352;2023-10-08T06:03:20;8.43;;;2.43;;
7047;SDS011;3565;53.254;10.352;2023-10-08T06:05:59;4.80;;;2.40;;
7047;SDS011;3565;53.254;10.352;2023-10-08T06:08:50;7.97;;;2.33;;
7047;SDS011;3565;53.254;10.352;2023-10-08T06:11:21;2.90;;;2.00;;
7047;SDS011;3565;53.254;10.352;2023-10-08T06:16:43;3.73;;;2.30;;
7047;SDS011;3565;53.254;10.352;2023-10-08T06:19:13;4.43;;;2.57;;
7047;SDS011;3565;53.254;10.352;2023-10-08T06:24:20;5.17;;;2.20;;
7047;SDS011;3565;53.254;10.352;2023-10-08T06:26:49;5.90;;;2.20;;
7047;SDS011;3565;53.254;10.352;2023-10-08T06:29:18;4.43;;;2.20;;
7047;SDS011;3565;53.254;10.352;2023-10-08T06:34:25;5.00;;;2.27;;
7047;SDS011;3565;53.254;10.352;2023-10-08T06:36:56;5.00;;;2.10;;
7047;SDS011;3565;53.254;10.352;2023-10-08T06:39:26;5.80;;;2.60;;
7047;SDS011;3565;53.254;10.352;2023-10-08T06:42:01;8.13;;;3.10;;
7047;SDS011;3565;53.254;10.352;2023-10-08T06:44:34;2.70;;;1.97;;
7047;SDS011;3565;53.254;10.352;2023-10-08T06:47:06;6.17;;;2.33;;
7047;SDS011;3565;53.254;10.352;2023-10-08T06:52:13;4.63;;;2.50;;
7047;SDS011;3565;53.254;10.352;2023-10-08T06:54:44;3.20;;;1.90;;
7047;SDS011;3565;53.254;10.352;2023-10-08T06:57:23;5.27;;;2.07;;
7047;SDS011;3565;53.254;10.352;2023-10-08T07:02:30;5.87;;;2.10;;
7047;SDS011;3565;53.254;10.352;2023-10-08T07:05:01;6.73;;;2.17;;
7047;SDS011;3565;53.254;10.352;2023-10-08T07:07:31;7.43;;;2.13;;
7047;SDS011;3565;53.254;10.352;2023-10-08T07:10:02;3.63;;;1.70;;
7047;SDS011;3565;53.254;10.352;2023-10-08T07:15:12;3.90;;;1.83;;
7047;SDS011;3565;53.254;10.352;2023-10-08T07:17:42;4.57;;;2.00;;
7047;SDS011;3565;53.254;10.352;2023-10-08T07:20:12;5.20;;;1.87;;
7047;SDS011;3565;53.254;10.352;2023-10-08T07:22:43;2.87;;;1.73;;
7047;SDS011;3565;53.254;10.352;2023-10-08T07:25:21;3.77;;;1.90;;
7047;SDS011;3565;53.254;10.352;2023-10-08T07:27:51;4.47;;;1.90;;
7047;SDS011;3565;53.254;10.352;2023-10-08T07:32:57;4.63;;;1.93;;
7047;SDS011;3565;53.254;10.352;2023-10-08T07:35:28;6.03;;;2.40;;
7047;SDS011;3565;53.254;10.352;2023-10-08T07:37:59;2.43;;;1.70;;
7047;SDS011;3565;53.254;10.352;2023-10-08T07:40:29;4.87;;;2.07;;
7047;SDS011;3565;53.254;10.352;2023-10-08T07:45:37;4.07;;;1.73;;
7047;SDS011;3565;53.254;10.352;2023-10-08T07:48:06;6.23;;;1.93;;
7047;SDS011;3565;53.254;10.352;2023-10-08T07:50:36;5.97;;;1.70;;
7047;SDS011;3565;53.254;10.352;2023-10-08T07:53:18;6.17;;;2.20;;
7047;SDS011;3565;53.254;10.352;2023-10-08T07:55:47;3.63;;;2.00;;
7047;SDS011;3565;53.254;10.352;2023-10-08T07:58:16;2.87;;;1.83;;
7047;SDS011;3565;53.254;10.352;2023-10-08T08:03:23;4.03;;;1.60;;
7047;SDS011;3565;53.254;10.352;2023-10-08T08:05:52;4.93;;;1.70;;
7047;SDS011;3565;53.254;10.352;2023-10-08T08:08:21;5.27;;;2.17;;
7047;SDS011;3565;53.254;10.352;2023-10-08T08:13:29;3.77;;;1.80;;
7047;SDS011;3565;53.254;10.352;2023-10-08T08:15:59;4.00;;;1.67;;
7047;SDS011;3565;53.254;10.352;2023-10-08T08:18:38;3.10;;;1.60;;
7047;SDS011;3565;53.254;10.352;2023-10-08T08:21:09;3.20;;;1.63;;
7047;SDS011;3565;53.254;10.352;2023-10-08T08:26:20;2.80;;;1.67;;
7047;SDS011;3565;53.254;10.352;2023-10-08T08:28:56;6.47;;;1.73;;
7047;SDS011;3565;53.254;10.352;2023-10-08T08:34:06;3.60;;;1.33;;
7047;SDS011;3565;53.254;10.352;2023-10-08T08:36:36;4.20;;;1.60;;
7047;SDS011;3565;53.254;10.352;2023-10-08T08:39:07;8.60;;;1.60;;
7047;SDS011;3565;53.254;10.352;2023-10-08T08:44:14;5.53;;;1.57;;
7047;SDS011;3565;53.254;10.352;2023-10-08T08:46:43;4.67;;;1.50;;
7047;SDS011;3565;53.254;10.352;2023-10-08T08:49:15;1.87;;;1.30;;
7047;SDS011;3565;53.254;10.352;2023-10-08T08:54:21;3.53;;;1.60;;
7047;SDS011;3565;53.254;10.352;2023-10-08T08:56:50;3.43;;;1.60;;
7047;SDS011;3565;53.254;10.352;2023-10-08T09:01:59;3.73;;;1.33;;
7047;SDS011;3565;53.254;10.352;2023-10-08T09:04:30;2.80;;;1.43;;
7047;SDS011;3565;53.254;10.352;2023-10-08T09:07:01;2.67;;;1.50;;
7047;SDS011;3565;53.254;10.352;2023-10-08T09:09:34;3.20;;;1.33;;
7047;SDS011;3565;53.254;10.352;2023-10-08T09:12:06;3.43;;;1.30;;
7047;SDS011;3565;53.254;10.352;2023-10-08T09:14:37;2.83;;;1.50;;
7047;SDS011;3565;53.254;10.352;2023-10-08T09:17:07;4.50;;;1.63;;
7047;SDS011;3565;53.254;10.352;2023-10-08T09:19:37;1.77;;;1.33;;
7047;SDS011;3565;53.254;10.352;2023-10-08T09:22:07;4.60;;;1.60;;
7047;SDS011;3565;53.254;10.352;2023-10-08T09:24:38;2.10;;;1.33;;
7047;SDS011;3565;53.254;10.352;2023-10-08T09:27:09;2.30;;;1.60;;
7047;SDS011;3565;53.254;10.352;2023-10-08T09:29:40;2.80;;;1.40;;
7047;SDS011;3565;53.254;10.352;2023-10-08T09:32:10;2.30;;;1.10;;
7047;SDS011;3565;53.254;10.352;2023-10-08T09:34:40;2.87;;;1.30;;
7047;SDS011;3565;53.254;10.352;2023-10-08T09:37:10;4.13;;;2.00;;
7047;SDS011;3565;53.254;10.352;2023-10-08T09:39:39;4.87;;;1.60;;
7047;SDS011;3565;53.254;10.352;2023-10-08T09:42:12;3.80;;;1.57;;
7047;SDS011;3565;53.254;10.352;2023-10-08T09:44:41;2.17;;;1.20;;
7047;SDS011;3565;53.254;10.352;2023-10-08T09:47:10;2.53;;;1.37;;
7047;SDS011;3565;53.254;10.352;2023-10-08T09:49:44;2.13;;;1.30;;
7047;SDS011;3565;53.254;10.352;2023-10-08T09:52:15;3.30;;;1.43;;
7047;SDS011;3565;53.254;10.352;2023-10-08T09:54:48;3.80;;;1.70;;
7047;SDS011;3565;53.254;10.352;2023-10-08T09:57:26;1.67;;;1.30;;
7047;SDS011;3565;53.254;10.352;2023-10-08T09:59:55;3.03;;;1.23;;
7047;SDS011;3565;53.254;10.352;2023-10-08T10:02:24;1.60;;;1.03;;
7047;SDS011;3565;53.254;10.352;2023-10-08T10:07:33;1.87;;;1.37;;
7047;SDS011;3565;53.254;10.352;2023-10-08T10:10:08;6.37;;;1.37;;
7047;SDS011;3565;53.254;10.352;2023-10-08T10:13:10;3.07;;;1.33;;
7047;SDS011;3565;53.254;10.352;2023-10-08T10:15:39;1.10;;;0.90;;
7047;SDS011;3565;53.254;10.352;2023-10-08T10:18:12;5.13;;;1.57;;
7047;SDS011;3565;53.254;10.352;2023-10-08T10:23:35;2.37;;;1.20;;
7047;SDS011;3565;53.254;10.352;2023-10-08T10:26:15;4.83;;;1.33;;
7047;SDS011;3565;53.254;10.352;2023-10-08T10:34:28;2.43;;;1.20;;
7047;SDS011;3565;53.254;10.352;2023-10-08T10:36:59;3.37;;;1.40;;
7047;SDS011;3565;53.254;10.352;2023-10-08T10:42:08;2.50;;;1.30;;
7047;SDS011;3565;53.254;10.352;2023-10-08T10:44:47;2.57;;;1.30;;
7047;SDS011;3565;53.254;10.352;2023-10-08T10:47:19;2.73;;;1.30;;
7047;SDS011;3565;53.254;10.352;2023-10-08T10:52:33;1.27;;;1.07;;
7047;SDS011;3565;53.254;10.352;2023-10-08T10:55:13;1.90;;;1.20;;
7047;SDS011;3565;53.254;10.352;2023-10-08T10:57:47;1.53;;;1.20;;
7047;SDS011;3565;53.254;10.352;2023-10-08T11:00:22;2.13;;;1.20;;
7047;SDS011;3565;53.254;10.352;2023-10-08T11:05:48;1.63;;;1.10;;
7047;SDS011;3565;53.254;10.352;2023-10-08T11:08:21;2.67;;;1.10;;
7047;SDS011;3565;53.254;10.352;2023-10-08T11:13:28;2.40;;;1.10;;
7047;SDS011;3565;53.254;10.352;2023-10-08T11:15:58;3.43;;;1.27;;
7047;SDS011;3565;53.254;10.352;2023-10-08T11:18:42;1.77;;;1.30;;
7047;SDS011;3565;53.254;10.352;2023-10-08T11:21:13;2.50;;;1.23;;
7047;SDS011;3565;53.254;10.352;2023-10-08T11:23:42;2.23;;;1.30;;
7047;SDS011;3565;53.254;10.352;2023-10-08T11:28:52;1.37;;;1.10;;
7047;SDS011;3565;53.254;10.352;2023-10-08T11:31:22;3.03;;;1.20;;
7047;SDS011;3565;53.254;10.352;2023-10-08T11:36:36;2.20;;;1.30;;
7047;SDS011;3565;53.254;10.352;2023-10-08T11:41:56;2.60;;;1.37;;
7047;SDS011;3565;53.254;10.352;2023-10-08T11:44:30;1.67;;;1.23;;
7047;SDS011;3565;53.254;10.352;2023-10-08T11:47:09;1.63;;;1.20;;
7047;SDS011;3565;53.254;10.352;2023-10-08T11:49:39;5.13;;;1.43;;
7047;SDS011;3565;53.254;10.352;2023-10-08T11:52:11;2.80;;;1.43;;
7047;SDS011;3565;53.254;10.352;2023-10-08T11:57:19;3.23;;;1.40;;
7047;SDS011;3565;53.254;10.352;2023-10-08T12:02:25;3.50;;;2.00;;
7047;SDS011;3565;53.254;10.352;2023-10-08T12:04:55;3.57;;;1.50;;
7047;SDS011;3565;53.254;10.352;2023-10-08T12:07:24;1.20;;;1.10;;
7047;SDS011;3565;53.254;10.352;2023-10-08T12:12:31;3.30;;;1.30;;
7047;SDS011;3565;53.254;10.352;2023-10-08T12:15:02;2.03;;;1.20;;
7047;SDS011;3565;53.254;10.352;2023-10-08T12:17:33;4.83;;;1.50;;
7047;SDS011;3565;53.254;10.352;2023-10-08T12:20:06;4.57;;;1.43;;
7047;SDS011;3565;53.254;10.352;2023-10-08T12:25:27;2.17;;;1.33;;
7047;SDS011;3565;53.254;10.352;2023-10-08T12:27:57;1.77;;;1.23;;
7047;SDS011;3565;53.254;10.352;2023-10-08T12:30:36;1.80;;;1.20;;
7047;SDS011;3565;53.254;10.352;2023-10-08T12:33:09;2.83;;;1.40;;
7047;SDS011;3565;53.254;10.352;2023-10-08T12:38:17;3.20;;;1.70;;
7047;SDS011;3565;53.254;10.352;2023-10-08T12:40:47;2.77;;;1.40;;
7047;SDS011;3565;53.254;10.352;2023-10-08T12:43:20;2.27;;;1.40;;
7047;SDS011;3565;53.254;10.352;2023-10-08T12:46:01;2.37;;;1.60;;
7047;SDS011;3565;53.254;10.352;2023-10-08T12:48:30;3.83;;;1.50;;
7047;SDS011;3565;53.254;10.352;2023-10-08T12:53:36;3.57;;;1.33;;
7047;SDS011;3565;53.254;10.352;2023-10-08T12:56:06;2.33;;;1.40;;
7047;SDS011;3565;53.254;10.352;2023-10-08T12:58:38;6.70;;;1.60;;
7047;SDS011;3565;53.254;10.352;2023-10-08T13:01:08;1.73;;;1.37;;
7047;SDS011;3565;53.254;10.352;2023-10-08T13:06:14;2.17;;;1.50;;
7047;SDS011;3565;53.254;10.352;2023-10-08T13:08:49;2.47;;;1.50;;
7047;SDS011;3565;53.254;10.352;2023-10-08T13:13:56;3.17;;;1.43;;
7047;SDS011;3565;53.254;10.352;2023-10-08T13:16:28;2.20;;;1.30;;
7047;SDS011;3565;53.254;10.352;2023-10-08T13:18:58;3.20;;;1.80;;
7047;SDS011;3565;53.254;10.352;2023-10-08T13:24:05;1.90;;;1.20;;
7047;SDS011;3565;53.254;10.352;2023-10-08T13:26:35;2.13;;;1.10;;
7047;SDS011;3565;53.254;10.352;2023-10-08T13:29:05;4.23;;;1.47;;
7047;SDS011;3565;53.254;10.352;2023-10-08T13:34:12;1.83;;;1.20;;
7047;SDS011;3565;53.254;10.352;2023-10-08T13:36:42;2.33;;;1.70;;
7047;SDS011;3565;53.254;10.352;2023-10-08T13:39:13;3.23;;;1.57;;
7047;SDS011;3565;53.254;10.352;2023-10-08T13:44:21;1.53;;;1.37;;
7047;SDS011;3565;53.254;10.352;2023-10-08T13:46:52;3.10;;;1.80;;
7047;SDS011;3565;53.254;10.352;2023-10-08T13:49:22;2.27;;;1.50;;
7047;SDS011;3565;53.254;10.352;2023-10-08T13:54:29;2.73;;;1.50;;
7047;SDS011;3565;53.254;10.352;2023-10-08T13:57:00;2.23;;;1.50;;
7047;SDS011;3565;53.254;10.352;2023-10-08T13:59:29;2.13;;;1.50;;
7047;SDS011;3565;53.254;10.352;2023-10-08T14:04:35;2.37;;;1.40;;
7047;SDS011;3565;53.254;10.352;2023-10-08T14:07:06;2.47;;;1.40;;
7047;SDS011;3565;53.254;10.352;2023-10-08T14:09:36;2.30;;;1.60;;
7047;SDS011;3565;53.254;10.352;2023-10-08T14:14:45;2.50;;;1.27;;
7047;SDS011;3565;53.254;10.352;2023-10-08T14:17:15;2.93;;;1.47;;
7047;SDS011;3565;53.254;10.352;2023-10-08T14:19:46;1.60;;;1.50;;
7047;SDS011;3565;53.254;10.352;2023-10-08T14:24:54;3.33;;;1.60;;
7047;SDS011;3565;53.254;10.352;2023-10-08T14:27:25;2.10;;;1.27;;
7047;SDS011;3565;53.254;10.352;2023-10-08T14:32:35;2.10;;;1.33;;
7047;SDS011;3565;53.254;10.352;2023-10-08T14:35:05;2.20;;;1.43;;
7047;SDS011;3565;53.254;10.352;2023-10-08T14:37:52;1.87;;;1.40;;
7047;SDS011;3565;53.254;10.352;2023-10-08T14:43:17;3.37;;;1.47;;
7047;SDS011;3565;53.254;10.352;2023-10-08T14:45:48;2.47;;;1.63;;
7047;SDS011;3565;53.254;10.352;2023-10-08T14:48:19;3.43;;;1.30;;
7047;SDS011;3565;53.254;10.352;2023-10-08T14:53:27;2.70;;;1.73;;
7047;SDS011;3565;53.254;10.352;2023-10-08T14:55:57;2.33;;;1.30;;
7047;SDS011;3565;53.254;10.352;2023-10-08T14:58:36;2.50;;;1.57;;
7047;SDS011;3565;53.254;10.352;2023-10-08T15:01:06;2.03;;;1.23;;
7047;SDS011;3565;53.254;10.352;2023-10-08T15:03:37;2.87;;;1.50;;
7047;SDS011;3565;53.254;10.352;2023-10-08T15:08:44;2.97;;;1.43;;
7047;SDS011;3565;53.254;10.352;2023-10-08T15:11:13;1.73;;;1.47;;
7047;SDS011;3565;53.254;10.352;2023-10-08T15:13:43;3.63;;;1.47;;
7047;SDS011;3565;53.254;10.352;2023-10-08T15:16:12;3.70;;;1.50;;
7047;SDS011;3565;53.254;10.352;2023-10-08T15:18:51;3.47;;;1.70;;
7047;SDS011;3565;53.254;10.352;2023-10-08T15:21:21;3.00;;;2.00;;
7047;SDS011;3565;53.254;10.352;2023-10-08T15:23:51;2.63;;;1.63;;
7047;SDS011;3565;53.254;10.352;2023-10-08T15:26:20;1.90;;;1.40;;
7047;SDS011;3565;53.254;10.352;2023-10-08T15:28:58;2.80;;;1.40;;
7047;SDS011;3565;53.254;10.352;2023-10-08T15:31:28;2.27;;;1.50;;
7047;SDS011;3565;53.254;10.352;2023-10-08T15:33:58;2.10;;;1.40;;
7047;SDS011;3565;53.254;10.352;2023-10-08T15:39:05;2.40;;;1.57;;
7047;SDS011;3565;53.254;10.352;2023-10-08T15:41:37;3.30;;;1.50;;
7047;SDS011;3565;53.254;10.352;2023-10-08T15:44:08;1.63;;;1.30;;
7047;SDS011;3565;53.254;10.352;2023-10-08T15:49:15;2.30;;;1.43;;
7047;SDS011;3565;53.254;10.352;2023-10-08T15:51:46;4.07;;;1.57;;
7047;SDS011;3565;53.254;10.352;2023-10-08T15:54:15;1.40;;;1.30;;
7047;SDS011;3565;53.254;10.352;2023-10-08T15:59:23;1.63;;;1.30;;
7047;SDS011;3565;53.254;10.352;2023-10-08T16:04:29;2.10;;;1.33;;
7047;SDS011;3565;53.254;10.352;2023-10-08T16:06:58;2.33;;;1.40;;
7047;SDS011;3565;53.254;10.352;2023-10-08T16:09:27;1.70;;;1.47;;
7047;SDS011;3565;53.254;10.352;2023-10-08T16:14:33;2.37;;;1.40;;
7047;SDS011;3565;53.254;10.352;2023-10-08T16:17:03;1.90;;;1.50;;
7047;SDS011;3565;53.254;10.352;2023-10-08T16:19:33;1.57;;;1.23;;
7047;SDS011;3565;53.254;10.352;2023-10-08T16:22:03;2.07;;;1.47;;
7047;SDS011;3565;53.254;10.352;2023-10-08T16:24:32;2.37;;;1.37;;
7047;SDS011;3565;53.254;10.352;2023-10-08T16:29:38;1.60;;;1.30;;
7047;SDS011;3565;53.254;10.352;2023-10-08T16:32:08;1.90;;;1.60;;
7047;SDS011;3565;53.254;10.352;2023-10-08T16:34:38;2.63;;;1.60;;
7047;SDS011;3565;53.254;10.352;2023-10-08T16:37:07;1.63;;;1.43;;
7047;SDS011;3565;53.254;10.352;2023-10-08T16:39:38;3.73;;;1.60;;
7047;SDS011;3565;53.254;10.352;2023-10-08T16:42:16;2.90;;;1.60;;
7047;SDS011;3565;53.254;10.352;2023-10-08T16:44:45;1.97;;;1.40;;
7047;SDS011;3565;53.254;10.352;2023-10-08T16:47:15;3.37;;;1.40;;
7047;SDS011;3565;53.254;10.352;2023-10-08T16:49:44;2.00;;;1.40;;
7047;SDS011;3565;53.254;10.352;2023-10-08T16:54:50;1.87;;;1.40;;
7047;SDS011;3565;53.254;10.352;2023-10-08T16:57:20;2.93;;;1.50;;
7047;SDS011;3565;53.254;10.352;2023-10-08T16:59:49;1.57;;;1.30;;
7047;SDS011;3565;53.254;10.352;2023-10-08T17:02:18;2.53;;;1.60;;
7047;SDS011;3565;53.254;10.352;2023-10-08T17:07:24;2.77;;;1.73;;
7047;SDS011;3565;53.254;10.352;2023-10-08T17:09:53;6.13;;;1.90;;
7047;SDS011;3565;53.254;10.352;2023-10-08T17:12:22;1.57;;;1.43;;
7047;SDS011;3565;53.254;10.352;2023-10-08T17:17:29;2.17;;;1.40;;
7047;SDS011;3565;53.254;10.352;2023-10-08T17:22:35;2.97;;;1.60;;
7047;SDS011;3565;53.254;10.352;2023-10-08T17:25:05;2.60;;;1.83;;
7047;SDS011;3565;53.254;10.352;2023-10-08T17:27:36;3.40;;;2.30;;
7047;SDS011;3565;53.254;10.352;2023-10-08T17:30:07;5.90;;;4.40;;
7047;SDS011;3565;53.254;10.352;2023-10-08T17:32:39;11.10;;;7.67;;
7047;SDS011;3565;53.254;10.352;2023-10-08T17:37:47;12.87;;;8.47;;
7047;SDS011;3565;53.254;10.352;2023-10-08T17:40:18;10.07;;;6.50;;
7047;SDS011;3565;53.254;10.352;2023-10-08T17:45:26;4.63;;;3.30;;
7047;SDS011;3565;53.254;10.352;2023-10-08T17:47:57;4.37;;;3.40;;
7047;SDS011;3565;53.254;10.352;2023-10-08T17:50:27;4.30;;;2.63;;
7047;SDS011;3565;53.254;10.352;2023-10-08T17:53:05;3.33;;;2.30;;
7047;SDS011;3565;53.254;10.352;2023-10-08T17:55:36;4.00;;;2.53;;
7047;SDS011;3565;53.254;10.352;2023-10-08T17:58:05;4.90;;;3.33;;
7047;SDS011;3565;53.254;10.352;2023-10-08T18:00:35;9.03;;;4.73;;
7047;SDS011;3565;53.254;10.352;2023-10-08T18:03:06;9.50;;;5.43;;
7047;SDS011;3565;53.254;10.352;2023-10-08T18:05:35;8.20;;;6.43;;
7047;SDS011;3565;53.254;10.352;2023-10-08T18:08:04;6.90;;;6.00;;
7047;SDS011;3565;53.254;10.352;2023-10-08T18:10:35;6.20;;;5.07;;
7047;SDS011;3565;53.254;10.352;2023-10-08T18:13:04;6.80;;;4.80;;
7047;SDS011;3565;53.254;10.352;2023-10-08T18:15:33;7.83;;;4.80;;
7047;SDS011;3565;53.254;10.352;2023-10-08T18:18:12;7.07;;;4.50;;
7047;SDS011;3565;53.254;10.352;2023-10-08T18:20:41;6.37;;;4.50;;
7047;SDS011;3565;53.254;10.352;2023-10-08T18:23:12;5.57;;;4.07;;
7047;SDS011;3565;53.254;10.352;2023-10-08T18:25:42;8.33;;;3.70;;
7047;SDS011;3565;53.254;10.352;2023-10-08T18:30:48;3.87;;;3.27;;
7047;SDS011;3565;53.254;10.352;2023-10-08T18:33:18;5.07;;;3.37;;
7047;SDS011;3565;53.254;10.352;2023-10-08T18:35:47;4.63;;;3.50;;
7047;SDS011;3565;53.254;10.352;2023-10-08T18:40:54;4.00;;;2.80;;
7047;SDS011;3565;53.254;10.352;2023-10-08T18:43:24;3.33;;;3.00;;
7047;SDS011;3565;53.254;10.352;2023-10-08T18:45:54;5.00;;;3.10;;
7047;SDS011;3565;53.254;10.352;2023-10-08T18:51:07;4.13;;;2.83;;
7047;SDS011;3565;53.254;10.352;2023-10-08T18:53:37;6.67;;;2.97;;
7047;SDS011;3565;53.254;10.352;2023-10-08T18:58:44;4.07;;;3.23;;
7047;SDS011;3565;53.254;10.352;2023-10-08T19:01:14;4.63;;;3.33;;
7047;SDS011;3565;53.254;10.352;2023-10-08T19:03:45;4.73;;;3.10;;
7047;SDS011;3565;53.254;10.352;2023-10-08T19:08:52;5.23;;;3.43;;
7047;SDS011;3565;53.254;10.352;2023-10-08T19:11:22;3.50;;;2.80;;
7047;SDS011;3565;53.254;10.352;2023-10-08T19:13:52;4.63;;;2.80;;
7047;SDS011;3565;53.254;10.352;2023-10-08T19:18:59;4.58;;;3.10;;
7047;SDS011;3565;53.254;10.352;2023-10-08T19:21:29;5.37;;;3.10;;
7047;SDS011;3565;53.254;10.352;2023-10-08T19:23:59;5.40;;;2.60;;
7047;SDS011;3565;53.254;10.352;2023-10-08T19:26:28;3.00;;;2.47;;
7047;SDS011;3565;53.254;10.352;2023-10-08T19:29:06;5.20;;;2.90;;
7047;SDS011;3565;53.254;10.352;2023-10-08T19:31:35;4.33;;;2.60;;
7047;SDS011;3565;53.254;10.352;2023-10-08T19:34:04;4.10;;;2.70;;
7047;SDS011;3565;53.254;10.352;2023-10-08T19:36:34;4.13;;;2.87;;
7047;SDS011;3565;53.254;10.352;2023-10-08T19:39:04;3.17;;;2.17;;
7047;SDS011;3565;53.254;10.352;2023-10-08T19:44:12;3.87;;;2.20;;
7047;SDS011;3565;53.254;10.352;2023-10-08T19:46:41;3.90;;;2.23;;
7047;SDS011;3565;53.254;10.352;2023-10-08T19:51:50;3.27;;;2.10;;
7047;SDS011;3565;53.254;10.352;2023-10-08T19:54:19;3.20;;;2.87;;
7047;SDS011;3565;53.254;10.352;2023-10-08T19:56:48;3.80;;;2.07;;